sensor_id;sensor_type;location;lat;lon;timestamp;P1;durP1;ratioP1;P2;durP2;ratioP2
56116;SDS011;41989;45.356;20.392;2023-04-24T00:02:24;8.85;;;5.72;;
56116;SDS011;41989;45.356;20.392;2023-04-24T00:04:50;9.50;;;4.95;;
56116;SDS011;41989;45.356;20.392;2023-04-24T00:07:17;8.30;;;5.28;;
56116;SDS011;41989;45.356;20.392;2023-04-24T00:09:45;9.65;;;5.60;;
56116;SDS011;41989;45.356;20.392;2023-04-24T00:12:11;9.95;;;5.40;;
56116;SDS011;41989;45.356;20.392;2023-04-24T00:14:37;7.95;;;5.15;;
56116;SDS011;41989;45.356;20.392;2023-04-24T00:17:03;9.57;;;5.30;;
56116;SDS011;41989;45.356;20.392;2023-04-24T00:19:29;9.13;;;5.35;;
56116;SDS011;41989;45.356;20.392;2023-04-24T00:21:56;9.10;;;4.82;;
56116;SDS011;41989;45.356;20.392;2023-04-24T00:24:22;9.68;;;5.55;;
56116;SDS011;41989;45.356;20.392;2023-04-24T00:26:48;12.88;;;5.18;;
56116;SDS011;41989;45.356;20.392;2023-04-24T00:29:14;7.07;;;4.80;;
56116;SDS011;41989;45.356;20.392;2023-04-24T00:31:40;11.52;;;5.30;;
56116;SDS011;41989;45.356;20.392;2023-04-24T00:34:06;9.88;;;5.57;;
56116;SDS011;41989;45.356;20.392;2023-04-24T00:36:32;11.48;;;5.50;;
56116;SDS011;41989;45.356;20.392;2023-04-24T00:38:59;9.13;;;5.03;;
56116;SDS011;41989;45.356;20.392;2023-04-24T00:41:27;10.65;;;5.28;;
56116;SDS011;41989;45.356;20.392;2023-04-24T00:43:54;11.43;;;4.85;;
56116;SDS011;41989;45.356;20.392;2023-04-24T00:46:20;9.48;;;5.35;;
56116;SDS011;41989;45.356;20.392;2023-04-24T00:48:46;8.25;;;5.45;;
56116;SDS011;41989;45.356;20.392;2023-04-24T00:51:13;8.40;;;5.10;;
56116;SDS011;41989;45.356;20.392;2023-04-24T00:53:39;9.07;;;4.85;;
56116;SDS011;41989;45.356;20.392;2023-04-24T00:56:05;10.50;;;5.30;;
56116;SDS011;41989;45.356;20.392;2023-04-24T00:58:32;9.77;;;5.10;;
56116;SDS011;41989;45.356;20.392;2023-04-24T01:00:58;10.00;;;4.75;;
56116;SDS011;41989;45.356;20.392;2023-04-24T01:03:26;10.32;;;5.00;;
56116;SDS011;41989;45.356;20.392;2023-04-24T01:05:54;10.43;;;5.32;;
56116;SDS011;41989;45.356;20.392;2023-04-24T01:08:20;8.07;;;5.15;;
56116;SDS011;41989;45.356;20.392;2023-04-24T01:10:46;9.05;;;5.18;;
56116;SDS011;41989;45.356;20.392;2023-04-24T01:13:13;13.18;;;5.85;;
56116;SDS011;41989;45.356;20.392;2023-04-24T01:15:39;10.13;;;5.70;;
56116;SDS011;41989;45.356;20.392;2023-04-24T01:18:05;10.25;;;5.63;;
56116;SDS011;41989;45.356;20.392;2023-04-24T01:20:31;10.52;;;5.57;;
56116;SDS011;41989;45.356;20.392;2023-04-24T01:22:58;8.68;;;5.70;;
56116;SDS011;41989;45.356;20.392;2023-04-24T01:25:25;12.20;;;6.10;;
56116;SDS011;41989;45.356;20.392;2023-04-24T01:27:51;9.75;;;6.00;;
56116;SDS011;41989;45.356;20.392;2023-04-24T01:30:17;9.35;;;6.05;;
56116;SDS011;41989;45.356;20.392;2023-04-24T01:32:47;9.98;;;5.75;;
56116;SDS011;41989;45.356;20.392;2023-04-24T01:35:13;8.43;;;5.60;;
56116;SDS011;41989;45.356;20.392;2023-04-24T01:37:39;12.55;;;6.57;;
56116;SDS011;41989;45.356;20.392;2023-04-24T01:40:06;10.02;;;5.97;;
56116;SDS011;41989;45.356;20.392;2023-04-24T01:42:32;9.35;;;5.55;;
56116;SDS011;41989;45.356;20.392;2023-04-24T01:45:00;10.07;;;5.50;;
56116;SDS011;41989;45.356;20.392;2023-04-24T01:47:28;14.30;;;5.93;;
56116;SDS011;41989;45.356;20.392;2023-04-24T01:49:55;11.00;;;5.97;;
56116;SDS011;41989;45.356;20.392;2023-04-24T01:52:21;8.82;;;6.22;;
56116;SDS011;41989;45.356;20.392;2023-04-24T01:54:48;10.50;;;5.40;;
56116;SDS011;41989;45.356;20.392;2023-04-24T01:57:14;10.50;;;6.40;;
56116;SDS011;41989;45.356;20.392;2023-04-24T01:59:41;9.88;;;6.20;;
56116;SDS011;41989;45.356;20.392;2023-04-24T02:02:08;10.63;;;6.03;;
56116;SDS011;41989;45.356;20.392;2023-04-24T02:04:34;8.52;;;5.90;;
56116;SDS011;41989;45.356;20.392;2023-04-24T02:07:00;10.70;;;5.95;;
56116;SDS011;41989;45.356;20.392;2023-04-24T02:09:26;11.00;;;6.28;;
56116;SDS011;41989;45.356;20.392;2023-04-24T02:11:52;9.95;;;6.43;;
56116;SDS011;41989;45.356;20.392;2023-04-24T02:14:18;10.15;;;6.25;;
56116;SDS011;41989;45.356;20.392;2023-04-24T02:16:44;15.07;;;6.90;;
56116;SDS011;41989;45.356;20.392;2023-04-24T02:19:10;12.98;;;6.55;;
56116;SDS011;41989;45.356;20.392;2023-04-24T02:21:36;8.93;;;6.55;;
56116;SDS011;41989;45.356;20.392;2023-04-24T02:24:03;8.85;;;6.60;;
56116;SDS011;41989;45.356;20.392;2023-04-24T02:26:29;9.52;;;6.57;;
56116;SDS011;41989;45.356;20.392;2023-04-24T02:28:56;16.35;;;6.28;;
56116;SDS011;41989;45.356;20.392;2023-04-24T02:31:23;7.93;;;6.38;;
56116;SDS011;41989;45.356;20.392;2023-04-24T02:33:49;10.93;;;6.35;;
56116;SDS011;41989;45.356;20.392;2023-04-24T02:36:15;9.73;;;6.35;;
56116;SDS011;41989;45.356;20.392;2023-04-24T02:38:41;9.57;;;6.72;;
56116;SDS011;41989;45.356;20.392;2023-04-24T02:41:07;10.40;;;6.47;;
56116;SDS011;41989;45.356;20.392;2023-04-24T02:43:34;10.98;;;6.55;;
56116;SDS011;41989;45.356;20.392;2023-04-24T02:46:00;11.35;;;6.90;;
56116;SDS011;41989;45.356;20.392;2023-04-24T02:48:26;10.88;;;6.25;;
56116;SDS011;41989;45.356;20.392;2023-04-24T02:50:52;14.30;;;6.60;;
56116;SDS011;41989;45.356;20.392;2023-04-24T02:53:18;14.70;;;7.22;;
56116;SDS011;41989;45.356;20.392;2023-04-24T02:55:44;9.77;;;6.57;;
56116;SDS011;41989;45.356;20.392;2023-04-24T02:58:11;7.63;;;6.28;;
56116;SDS011;41989;45.356;20.392;2023-04-24T03:00:38;8.25;;;6.10;;
56116;SDS011;41989;45.356;20.392;2023-04-24T03:03:04;11.95;;;6.60;;
56116;SDS011;41989;45.356;20.392;2023-04-24T03:05:31;10.10;;;6.28;;
56116;SDS011;41989;45.356;20.392;2023-04-24T03:07:58;10.15;;;6.70;;
56116;SDS011;41989;45.356;20.392;2023-04-24T03:10:24;13.35;;;7.10;;
56116;SDS011;41989;45.356;20.392;2023-04-24T03:12:50;9.52;;;6.47;;
56116;SDS011;41989;45.356;20.392;2023-04-24T03:15:16;13.45;;;6.63;;
56116;SDS011;41989;45.356;20.392;2023-04-24T03:17:42;9.40;;;6.38;;
56116;SDS011;41989;45.356;20.392;2023-04-24T03:20:09;10.75;;;6.25;;
56116;SDS011;41989;45.356;20.392;2023-04-24T03:22:35;9.60;;;6.60;;
56116;SDS011;41989;45.356;20.392;2023-04-24T03:25:01;12.98;;;6.55;;
56116;SDS011;41989;45.356;20.392;2023-04-24T03:27:27;8.82;;;6.80;;
56116;SDS011;41989;45.356;20.392;2023-04-24T03:29:53;11.25;;;6.63;;
56116;SDS011;41989;45.356;20.392;2023-04-24T03:32:22;13.23;;;7.55;;
56116;SDS011;41989;45.356;20.392;2023-04-24T03:34:49;13.27;;;7.47;;
56116;SDS011;41989;45.356;20.392;2023-04-24T03:37:15;11.10;;;6.93;;
56116;SDS011;41989;45.356;20.392;2023-04-24T03:39:42;12.50;;;7.22;;
56116;SDS011;41989;45.356;20.392;2023-04-24T03:42:08;14.30;;;7.47;;
56116;SDS011;41989;45.356;20.392;2023-04-24T03:44:38;13.32;;;8.68;;
56116;SDS011;41989;45.356;20.392;2023-04-24T03:47:04;19.33;;;8.20;;
56116;SDS011;41989;45.356;20.392;2023-04-24T03:49:30;12.63;;;8.45;;
56116;SDS011;41989;45.356;20.392;2023-04-24T03:51:56;10.68;;;7.60;;
56116;SDS011;41989;45.356;20.392;2023-04-24T03:54:22;13.25;;;8.20;;
56116;SDS011;41989;45.356;20.392;2023-04-24T03:56:48;16.48;;;8.73;;
56116;SDS011;41989;45.356;20.392;2023-04-24T03:59:15;11.25;;;8.35;;
56116;SDS011;41989;45.356;20.392;2023-04-24T04:01:41;11.10;;;7.28;;
56116;SDS011;41989;45.356;20.392;2023-04-24T04:04:07;13.40;;;8.00;;
56116;SDS011;41989;45.356;20.392;2023-04-24T04:06:33;15.05;;;8.50;;
56116;SDS011;41989;45.356;20.392;2023-04-24T04:09:01;13.85;;;8.23;;
56116;SDS011;41989;45.356;20.392;2023-04-24T04:11:28;17.42;;;9.32;;
56116;SDS011;41989;45.356;20.392;2023-04-24T04:13:55;9.60;;;7.88;;
56116;SDS011;41989;45.356;20.392;2023-04-24T04:16:22;11.52;;;7.93;;
56116;SDS011;41989;45.356;20.392;2023-04-24T04:18:48;17.02;;;9.55;;
56116;SDS011;41989;45.356;20.392;2023-04-24T04:21:14;21.50;;;10.45;;
56116;SDS011;41989;45.356;20.392;2023-04-24T04:23:40;13.38;;;9.15;;
56116;SDS011;41989;45.356;20.392;2023-04-24T04:26:07;15.57;;;9.85;;
56116;SDS011;41989;45.356;20.392;2023-04-24T04:28:36;12.00;;;7.82;;
56116;SDS011;41989;45.356;20.392;2023-04-24T04:31:04;10.10;;;7.35;;
56116;SDS011;41989;45.356;20.392;2023-04-24T04:33:33;12.07;;;7.63;;
56116;SDS011;41989;45.356;20.392;2023-04-24T04:36:03;13.40;;;8.10;;
56116;SDS011;41989;45.356;20.392;2023-04-24T04:38:29;13.13;;;7.00;;
56116;SDS011;41989;45.356;20.392;2023-04-24T04:40:55;8.90;;;6.43;;
56116;SDS011;41989;45.356;20.392;2023-04-24T04:43:25;8.65;;;6.80;;
56116;SDS011;41989;45.356;20.392;2023-04-24T04:45:54;14.02;;;7.13;;
56116;SDS011;41989;45.356;20.392;2023-04-24T04:48:21;10.97;;;6.80;;
56116;SDS011;41989;45.356;20.392;2023-04-24T04:50:53;11.50;;;8.18;;
56116;SDS011;41989;45.356;20.392;2023-04-24T04:53:19;13.68;;;7.18;;
56116;SDS011;41989;45.356;20.392;2023-04-24T04:55:50;11.13;;;6.50;;
56116;SDS011;41989;45.356;20.392;2023-04-24T04:58:17;10.27;;;6.22;;
56116;SDS011;41989;45.356;20.392;2023-04-24T05:00:43;16.60;;;8.45;;
56116;SDS011;41989;45.356;20.392;2023-04-24T05:03:09;8.18;;;5.65;;
56116;SDS011;41989;45.356;20.392;2023-04-24T05:05:35;9.90;;;6.78;;
56116;SDS011;41989;45.356;20.392;2023-04-24T05:08:05;11.18;;;5.80;;
56116;SDS011;41989;45.356;20.392;2023-04-24T05:10:31;10.60;;;5.22;;
56116;SDS011;41989;45.356;20.392;2023-04-24T05:13:02;8.90;;;5.50;;
56116;SDS011;41989;45.356;20.392;2023-04-24T05:15:28;13.23;;;6.40;;
56116;SDS011;41989;45.356;20.392;2023-04-24T05:17:55;7.45;;;6.00;;
56116;SDS011;41989;45.356;20.392;2023-04-24T05:20:21;8.32;;;5.85;;
56116;SDS011;41989;45.356;20.392;2023-04-24T05:22:47;10.35;;;5.47;;
56116;SDS011;41989;45.356;20.392;2023-04-24T05:25:14;12.32;;;4.85;;
56116;SDS011;41989;45.356;20.392;2023-04-24T05:27:42;10.30;;;6.07;;
56116;SDS011;41989;45.356;20.392;2023-04-24T05:30:09;16.88;;;6.25;;
56116;SDS011;41989;45.356;20.392;2023-04-24T05:32:35;8.98;;;5.80;;
56116;SDS011;41989;45.356;20.392;2023-04-24T05:35:02;10.27;;;5.57;;
56116;SDS011;41989;45.356;20.392;2023-04-24T05:37:28;12.38;;;5.40;;
56116;SDS011;41989;45.356;20.392;2023-04-24T05:39:54;10.48;;;5.93;;
56116;SDS011;41989;45.356;20.392;2023-04-24T05:42:23;9.68;;;5.20;;
56116;SDS011;41989;45.356;20.392;2023-04-24T05:44:49;9.55;;;6.18;;
56116;SDS011;41989;45.356;20.392;2023-04-24T05:47:16;10.85;;;6.00;;
56116;SDS011;41989;45.356;20.392;2023-04-24T05:49:42;11.57;;;6.40;;
56116;SDS011;41989;45.356;20.392;2023-04-24T05:52:08;12.13;;;5.78;;
56116;SDS011;41989;45.356;20.392;2023-04-24T05:54:34;11.60;;;5.65;;
56116;SDS011;41989;45.356;20.392;2023-04-24T05:57:00;8.38;;;5.80;;
56116;SDS011;41989;45.356;20.392;2023-04-24T05:59:32;13.10;;;6.65;;
56116;SDS011;41989;45.356;20.392;2023-04-24T06:01:58;14.23;;;5.85;;
56116;SDS011;41989;45.356;20.392;2023-04-24T06:04:24;9.20;;;5.95;;
56116;SDS011;41989;45.356;20.392;2023-04-24T06:06:51;14.45;;;6.50;;
56116;SDS011;41989;45.356;20.392;2023-04-24T06:09:21;10.43;;;5.80;;
56116;SDS011;41989;45.356;20.392;2023-04-24T06:11:47;11.10;;;6.47;;
56116;SDS011;41989;45.356;20.392;2023-04-24T06:14:13;10.00;;;6.00;;
56116;SDS011;41989;45.356;20.392;2023-04-24T06:16:42;8.75;;;6.45;;
56116;SDS011;41989;45.356;20.392;2023-04-24T06:19:08;9.52;;;5.88;;
56116;SDS011;41989;45.356;20.392;2023-04-24T06:21:34;10.77;;;6.70;;
56116;SDS011;41989;45.356;20.392;2023-04-24T06:24:01;8.77;;;6.13;;
56116;SDS011;41989;45.356;20.392;2023-04-24T06:26:27;9.32;;;6.00;;
56116;SDS011;41989;45.356;20.392;2023-04-24T06:28:53;6.88;;;5.18;;
56116;SDS011;41989;45.356;20.392;2023-04-24T06:31:20;8.80;;;5.70;;
56116;SDS011;41989;45.356;20.392;2023-04-24T06:33:47;12.27;;;5.55;;
56116;SDS011;41989;45.356;20.392;2023-04-24T06:36:13;11.52;;;5.80;;
56116;SDS011;41989;45.356;20.392;2023-04-24T06:38:40;11.60;;;6.00;;
56116;SDS011;41989;45.356;20.392;2023-04-24T06:41:06;8.90;;;5.90;;
56116;SDS011;41989;45.356;20.392;2023-04-24T06:43:32;7.90;;;5.53;;
56116;SDS011;41989;45.356;20.392;2023-04-24T06:45:59;11.23;;;5.50;;
56116;SDS011;41989;45.356;20.392;2023-04-24T06:48:25;9.70;;;5.78;;
56116;SDS011;41989;45.356;20.392;2023-04-24T06:50:51;6.90;;;5.70;;
56116;SDS011;41989;45.356;20.392;2023-04-24T06:53:20;12.57;;;5.82;;
56116;SDS011;41989;45.356;20.392;2023-04-24T06:55:47;10.38;;;6.55;;
56116;SDS011;41989;45.356;20.392;2023-04-24T06:58:13;11.52;;;6.57;;
56116;SDS011;41989;45.356;20.392;2023-04-24T07:00:40;10.82;;;7.75;;
56116;SDS011;41989;45.356;20.392;2023-04-24T07:03:06;16.85;;;7.70;;
56116;SDS011;41989;45.356;20.392;2023-04-24T07:05:34;11.63;;;7.88;;
56116;SDS011;41989;45.356;20.392;2023-04-24T07:08:02;13.93;;;8.18;;
56116;SDS011;41989;45.356;20.392;2023-04-24T07:10:28;12.15;;;7.53;;
56116;SDS011;41989;45.356;20.392;2023-04-24T07:12:55;10.43;;;7.95;;
56116;SDS011;41989;45.356;20.392;2023-04-24T07:15:22;14.43;;;9.18;;
56116;SDS011;41989;45.356;20.392;2023-04-24T07:17:48;10.32;;;9.02;;
56116;SDS011;41989;45.356;20.392;2023-04-24T07:20:17;9.68;;;8.32;;
56116;SDS011;41989;45.356;20.392;2023-04-24T07:22:43;10.30;;;7.55;;
56116;SDS011;41989;45.356;20.392;2023-04-24T07:25:09;13.65;;;8.43;;
56116;SDS011;41989;45.356;20.392;2023-04-24T07:27:36;11.90;;;8.65;;
56116;SDS011;41989;45.356;20.392;2023-04-24T07:30:03;22.27;;;11.10;;
56116;SDS011;41989;45.356;20.392;2023-04-24T07:32:29;33.10;;;11.27;;
56116;SDS011;41989;45.356;20.392;2023-04-24T07:34:55;14.68;;;9.00;;
56116;SDS011;41989;45.356;20.392;2023-04-24T07:37:22;12.65;;;8.10;;
56116;SDS011;41989;45.356;20.392;2023-04-24T07:39:48;11.02;;;8.10;;
56116;SDS011;41989;45.356;20.392;2023-04-24T07:42:15;12.30;;;8.77;;
56116;SDS011;41989;45.356;20.392;2023-04-24T07:44:41;15.75;;;8.30;;
56116;SDS011;41989;45.356;20.392;2023-04-24T07:47:07;11.25;;;8.63;;
56116;SDS011;41989;45.356;20.392;2023-04-24T07:49:33;13.55;;;9.27;;
56116;SDS011;41989;45.356;20.392;2023-04-24T07:52:00;13.95;;;9.40;;
56116;SDS011;41989;45.356;20.392;2023-04-24T07:54:27;10.80;;;8.73;;
56116;SDS011;41989;45.356;20.392;2023-04-24T07:56:53;11.07;;;8.13;;
56116;SDS011;41989;45.356;20.392;2023-04-24T07:59:20;12.43;;;9.48;;
56116;SDS011;41989;45.356;20.392;2023-04-24T08:01:46;15.23;;;10.48;;
56116;SDS011;41989;45.356;20.392;2023-04-24T08:04:12;13.38;;;10.32;;
56116;SDS011;41989;45.356;20.392;2023-04-24T08:06:38;12.65;;;10.70;;
56116;SDS011;41989;45.356;20.392;2023-04-24T08:09:04;13.85;;;10.25;;
56116;SDS011;41989;45.356;20.392;2023-04-24T08:11:31;15.77;;;11.50;;
56116;SDS011;41989;45.356;20.392;2023-04-24T08:13:57;26.83;;;12.07;;
56116;SDS011;41989;45.356;20.392;2023-04-24T08:16:24;19.42;;;15.00;;
56116;SDS011;41989;45.356;20.392;2023-04-24T08:18:50;21.85;;;15.98;;
56116;SDS011;41989;45.356;20.392;2023-04-24T08:21:16;19.05;;;13.43;;
56116;SDS011;41989;45.356;20.392;2023-04-24T08:23:43;18.70;;;13.20;;
56116;SDS011;41989;45.356;20.392;2023-04-24T08:26:10;15.52;;;12.80;;
56116;SDS011;41989;45.356;20.392;2023-04-24T08:28:40;13.63;;;11.15;;
56116;SDS011;41989;45.356;20.392;2023-04-24T08:31:06;15.25;;;12.15;;
56116;SDS011;41989;45.356;20.392;2023-04-24T08:33:35;16.02;;;12.63;;
56116;SDS011;41989;45.356;20.392;2023-04-24T08:36:02;13.75;;;11.45;;
56116;SDS011;41989;45.356;20.392;2023-04-24T08:38:28;12.40;;;10.43;;
56116;SDS011;41989;45.356;20.392;2023-04-24T08:40:54;18.40;;;12.77;;
56116;SDS011;41989;45.356;20.392;2023-04-24T08:43:22;14.27;;;10.88;;
56116;SDS011;41989;45.356;20.392;2023-04-24T08:45:48;13.32;;;11.40;;
56116;SDS011;41989;45.356;20.392;2023-04-24T08:48:14;21.85;;;12.05;;
56116;SDS011;41989;45.356;20.392;2023-04-24T08:50:41;16.67;;;12.75;;
56116;SDS011;41989;45.356;20.392;2023-04-24T08:53:08;20.23;;;18.02;;
56116;SDS011;41989;45.356;20.392;2023-04-24T08:55:34;12.18;;;10.57;;
56116;SDS011;41989;45.356;20.392;2023-04-24T08:58:01;11.40;;;10.02;;
56116;SDS011;41989;45.356;20.392;2023-04-24T09:00:28;12.52;;;10.35;;
56116;SDS011;41989;45.356;20.392;2023-04-24T09:02:54;28.60;;;25.83;;
56116;SDS011;41989;45.356;20.392;2023-04-24T09:05:21;14.52;;;10.43;;
56116;SDS011;41989;45.356;20.392;2023-04-24T09:07:55;11.57;;;9.00;;
56116;SDS011;41989;45.356;20.392;2023-04-24T09:10:22;17.83;;;10.90;;
56116;SDS011;41989;45.356;20.392;2023-04-24T09:12:50;15.30;;;10.45;;
56116;SDS011;41989;45.356;20.392;2023-04-24T09:15:16;16.05;;;10.55;;
56116;SDS011;41989;45.356;20.392;2023-04-24T09:17:43;12.27;;;11.07;;
56116;SDS011;41989;45.356;20.392;2023-04-24T09:20:09;13.13;;;11.05;;
56116;SDS011;41989;45.356;20.392;2023-04-24T09:22:36;12.13;;;9.73;;
56116;SDS011;41989;45.356;20.392;2023-04-24T09:25:03;11.70;;;9.15;;
56116;SDS011;41989;45.356;20.392;2023-04-24T09:27:30;12.77;;;9.75;;
56116;SDS011;41989;45.356;20.392;2023-04-24T09:29:57;13.98;;;10.57;;
56116;SDS011;41989;45.356;20.392;2023-04-24T09:32:23;13.38;;;10.80;;
56116;SDS011;41989;45.356;20.392;2023-04-24T09:35:14;13.30;;;10.85;;
56116;SDS011;41989;45.356;20.392;2023-04-24T09:40:07;12.77;;;10.20;;
56116;SDS011;41989;45.356;20.392;2023-04-24T09:42:33;15.10;;;12.50;;
56116;SDS011;41989;45.356;20.392;2023-04-24T09:45:00;14.60;;;10.52;;
56116;SDS011;41989;45.356;20.392;2023-04-24T09:47:27;15.18;;;11.52;;
56116;SDS011;41989;45.356;20.392;2023-04-24T09:49:57;15.85;;;11.25;;
56116;SDS011;41989;45.356;20.392;2023-04-24T09:52:23;12.68;;;10.50;;
56116;SDS011;41989;45.356;20.392;2023-04-24T09:54:53;14.02;;;9.73;;
56116;SDS011;41989;45.356;20.392;2023-04-24T09:57:19;18.43;;;10.67;;
56116;SDS011;41989;45.356;20.392;2023-04-24T09:59:46;13.50;;;9.50;;
56116;SDS011;41989;45.356;20.392;2023-04-24T10:02:16;13.52;;;11.88;;
56116;SDS011;41989;45.356;20.392;2023-04-24T10:04:53;13.95;;;11.10;;
56116;SDS011;41989;45.356;20.392;2023-04-24T10:07:20;14.38;;;11.23;;
56116;SDS011;41989;45.356;20.392;2023-04-24T10:09:46;15.52;;;11.48;;
56116;SDS011;41989;45.356;20.392;2023-04-24T10:12:13;16.42;;;11.00;;
56116;SDS011;41989;45.356;20.392;2023-04-24T10:14:40;16.98;;;12.10;;
56116;SDS011;41989;45.356;20.392;2023-04-24T10:17:06;18.60;;;13.65;;
56116;SDS011;41989;45.356;20.392;2023-04-24T10:19:33;18.45;;;12.70;;
56116;SDS011;41989;45.356;20.392;2023-04-24T10:22:00;18.42;;;13.05;;
56116;SDS011;41989;45.356;20.392;2023-04-24T10:24:26;16.13;;;12.80;;
56116;SDS011;41989;45.356;20.392;2023-04-24T10:26:54;13.75;;;12.23;;
56116;SDS011;41989;45.356;20.392;2023-04-24T10:29:21;18.63;;;13.25;;
56116;SDS011;41989;45.356;20.392;2023-04-24T10:31:48;17.75;;;14.10;;
56116;SDS011;41989;45.356;20.392;2023-04-24T10:34:14;17.45;;;12.15;;
56116;SDS011;41989;45.356;20.392;2023-04-24T10:36:53;15.60;;;13.25;;
56116;SDS011;41989;45.356;20.392;2023-04-24T10:39:20;15.90;;;12.60;;
56116;SDS011;41989;45.356;20.392;2023-04-24T10:41:48;16.02;;;13.60;;
56116;SDS011;41989;45.356;20.392;2023-04-24T10:44:15;20.60;;;13.68;;
56116;SDS011;41989;45.356;20.392;2023-04-24T10:46:45;22.58;;;15.48;;
56116;SDS011;41989;45.356;20.392;2023-04-24T10:49:14;16.52;;;13.98;;
56116;SDS011;41989;45.356;20.392;2023-04-24T10:51:50;18.85;;;14.43;;
56116;SDS011;41989;45.356;20.392;2023-04-24T10:54:28;17.75;;;13.57;;
56116;SDS011;41989;45.356;20.392;2023-04-24T10:59:39;21.90;;;13.18;;
56116;SDS011;41989;45.356;20.392;2023-04-24T11:02:06;15.02;;;13.25;;
56116;SDS011;41989;45.356;20.392;2023-04-24T11:04:34;18.20;;;15.27;;
56116;SDS011;41989;45.356;20.392;2023-04-24T11:07:05;25.58;;;18.95;;
56116;SDS011;41989;45.356;20.392;2023-04-24T11:09:31;18.05;;;15.00;;
56116;SDS011;41989;45.356;20.392;2023-04-24T11:14:58;18.20;;;14.80;;
56116;SDS011;41989;45.356;20.392;2023-04-24T11:17:29;16.50;;;14.60;;
56116;SDS011;41989;45.356;20.392;2023-04-24T11:20:06;17.85;;;13.75;;
56116;SDS011;41989;45.356;20.392;2023-04-24T11:22:34;16.90;;;12.88;;
56116;SDS011;41989;45.356;20.392;2023-04-24T11:25:01;13.55;;;12.13;;
56116;SDS011;41989;45.356;20.392;2023-04-24T11:27:30;14.40;;;12.85;;
56116;SDS011;41989;45.356;20.392;2023-04-24T11:34:49;19.83;;;13.13;;
56116;SDS011;41989;45.356;20.392;2023-04-24T11:37:15;16.02;;;14.32;;
56116;SDS011;41989;45.356;20.392;2023-04-24T11:39:42;17.33;;;14.55;;
56116;SDS011;41989;45.356;20.392;2023-04-24T11:42:14;19.45;;;15.23;;
56116;SDS011;41989;45.356;20.392;2023-04-24T11:44:42;22.58;;;17.23;;
56116;SDS011;41989;45.356;20.392;2023-04-24T11:47:08;21.10;;;14.73;;
56116;SDS011;41989;45.356;20.392;2023-04-24T11:49:37;20.58;;;16.23;;
56116;SDS011;41989;45.356;20.392;2023-04-24T11:52:04;20.00;;;14.85;;
56116;SDS011;41989;45.356;20.392;2023-04-24T11:54:30;19.77;;;15.23;;
56116;SDS011;41989;45.356;20.392;2023-04-24T11:56:56;24.33;;;14.82;;
56116;SDS011;41989;45.356;20.392;2023-04-24T11:59:23;16.50;;;13.98;;
56116;SDS011;41989;45.356;20.392;2023-04-24T12:01:49;16.90;;;13.68;;
56116;SDS011;41989;45.356;20.392;2023-04-24T12:04:16;21.30;;;15.25;;
56116;SDS011;41989;45.356;20.392;2023-04-24T12:07:00;21.90;;;14.82;;
56116;SDS011;41989;45.356;20.392;2023-04-24T12:09:26;19.58;;;14.80;;
56116;SDS011;41989;45.356;20.392;2023-04-24T12:11:58;20.38;;;16.40;;
56116;SDS011;41989;45.356;20.392;2023-04-24T12:14:24;17.75;;;15.35;;
56116;SDS011;41989;45.356;20.392;2023-04-24T12:16:50;18.00;;;15.13;;
56116;SDS011;41989;45.356;20.392;2023-04-24T12:19:23;17.25;;;14.73;;
56116;SDS011;41989;45.356;20.392;2023-04-24T12:22:03;22.88;;;16.40;;
56116;SDS011;41989;45.356;20.392;2023-04-24T12:24:30;19.13;;;15.88;;
56116;SDS011;41989;45.356;20.392;2023-04-24T12:26:56;26.20;;;16.67;;
56116;SDS011;41989;45.356;20.392;2023-04-24T12:29:23;17.85;;;14.55;;
56116;SDS011;41989;45.356;20.392;2023-04-24T12:31:52;19.35;;;16.17;;
56116;SDS011;41989;45.356;20.392;2023-04-24T12:34:21;15.32;;;13.35;;
56116;SDS011;41989;45.356;20.392;2023-04-24T12:36:47;19.80;;;14.73;;
56116;SDS011;41989;45.356;20.392;2023-04-24T12:39:17;18.73;;;13.68;;
56116;SDS011;41989;45.356;20.392;2023-04-24T12:41:56;16.52;;;13.45;;
56116;SDS011;41989;45.356;20.392;2023-04-24T12:44:32;14.77;;;12.18;;
56116;SDS011;41989;45.356;20.392;2023-04-24T12:46:59;16.40;;;12.32;;
56116;SDS011;41989;45.356;20.392;2023-04-24T12:49:26;16.27;;;12.73;;
56116;SDS011;41989;45.356;20.392;2023-04-24T12:51:52;16.92;;;12.45;;
56116;SDS011;41989;45.356;20.392;2023-04-24T12:54:18;14.15;;;12.00;;
56116;SDS011;41989;45.356;20.392;2023-04-24T12:56:44;13.88;;;12.27;;
56116;SDS011;41989;45.356;20.392;2023-04-24T12:59:10;19.67;;;14.02;;
56116;SDS011;41989;45.356;20.392;2023-04-24T13:01:36;20.00;;;11.93;;
56116;SDS011;41989;45.356;20.392;2023-04-24T13:04:02;14.35;;;12.05;;
56116;SDS011;41989;45.356;20.392;2023-04-24T13:06:28;13.30;;;11.57;;
56116;SDS011;41989;45.356;20.392;2023-04-24T13:08:55;13.65;;;11.07;;
56116;SDS011;41989;45.356;20.392;2023-04-24T13:11:22;15.43;;;11.38;;
56116;SDS011;41989;45.356;20.392;2023-04-24T13:13:49;17.48;;;12.88;;
56116;SDS011;41989;45.356;20.392;2023-04-24T13:16:15;17.15;;;12.40;;
56116;SDS011;41989;45.356;20.392;2023-04-24T13:18:41;16.13;;;12.55;;
56116;SDS011;41989;45.356;20.392;2023-04-24T13:21:07;19.95;;;12.65;;
56116;SDS011;41989;45.356;20.392;2023-04-24T13:23:34;16.20;;;12.80;;
56116;SDS011;41989;45.356;20.392;2023-04-24T13:26:00;16.50;;;12.40;;
56116;SDS011;41989;45.356;20.392;2023-04-24T13:28:27;20.77;;;13.10;;
56116;SDS011;41989;45.356;20.392;2023-04-24T13:30:54;17.23;;;12.45;;
56116;SDS011;41989;45.356;20.392;2023-04-24T13:33:20;16.80;;;13.05;;
56116;SDS011;41989;45.356;20.392;2023-04-24T13:35:46;16.60;;;12.88;;
56116;SDS011;41989;45.356;20.392;2023-04-24T13:38:13;20.10;;;13.15;;
56116;SDS011;41989;45.356;20.392;2023-04-24T13:40:39;14.82;;;12.27;;
56116;SDS011;41989;45.356;20.392;2023-04-24T13:43:05;15.70;;;13.18;;
56116;SDS011;41989;45.356;20.392;2023-04-24T13:45:31;14.95;;;12.10;;
56116;SDS011;41989;45.356;20.392;2023-04-24T13:47:57;16.52;;;11.65;;
56116;SDS011;41989;45.356;20.392;2023-04-24T13:50:23;18.05;;;13.02;;
56116;SDS011;41989;45.356;20.392;2023-04-24T13:52:50;18.40;;;12.95;;
56116;SDS011;41989;45.356;20.392;2023-04-24T13:55:16;18.80;;;12.82;;
56116;SDS011;41989;45.356;20.392;2023-04-24T13:57:42;20.50;;;14.65;;
56116;SDS011;41989;45.356;20.392;2023-04-24T14:00:08;25.80;;;21.23;;
56116;SDS011;41989;45.356;20.392;2023-04-24T14:02:35;18.35;;;15.82;;
56116;SDS011;41989;45.356;20.392;2023-04-24T14:05:02;19.58;;;14.00;;
56116;SDS011;41989;45.356;20.392;2023-04-24T14:07:31;17.77;;;13.02;;
56116;SDS011;41989;45.356;20.392;2023-04-24T14:09:57;21.25;;;15.15;;
56116;SDS011;41989;45.356;20.392;2023-04-24T14:12:23;18.63;;;13.68;;
56116;SDS011;41989;45.356;20.392;2023-04-24T14:14:50;18.65;;;13.65;;
56116;SDS011;41989;45.356;20.392;2023-04-24T14:17:16;16.60;;;12.98;;
56116;SDS011;41989;45.356;20.392;2023-04-24T14:19:43;44.67;;;23.40;;
56116;SDS011;41989;45.356;20.392;2023-04-24T14:22:09;15.75;;;10.38;;
56116;SDS011;41989;45.356;20.392;2023-04-24T14:24:35;15.38;;;11.68;;
56116;SDS011;41989;45.356;20.392;2023-04-24T14:27:01;14.75;;;10.48;;
56116;SDS011;41989;45.356;20.392;2023-04-24T14:29:28;17.25;;;11.60;;
56116;SDS011;41989;45.356;20.392;2023-04-24T14:31:54;13.35;;;10.05;;